Norwalk, IA (50211)

7:44 AM CDT on October 24, 2014 (GMT -0500)
Norwalk, IA (2mi SW) | Change Station
CLOSE
Current Station
Personal Weather Station
Location: Norwalk, IA
Elevation: 919 ft
Nearby Weather Stations
Active Advisory: Dense Fog Advisory

Elev 919 ft 41.46 °N, 93.71 °W | Updated 10 minutes ago

Fog
Fog
57.4 °F
Feels Like 57.4 °F
N
4.7
Wind Variable Wind from South

Today
High -- | Low -- °F
--% Chance of Precip.
Yesterday
High -- | Low -- °F
Precip. -- in
7:36 AM 6:20 PM
New Moon, 0% visible
Pressure 29.98 in
Visibility 0.1 miles
Clouds
Dew Point 57 °F
Humidity 98%
Rainfall 0.00 in
Snow Depth Not available.
UV Not available.
Pollen 2.20 out of 12
Air Quality Not available.
Flu Activity Sporadic
SPECI KDSM 241212Z 19010KT 1/8SM R31/1800V3000FT FG VV002 15/14 A2998 RMK AO2 SFC VIS 1/2 T01500139 $

More Conditions Fewer Conditions

Pressure 29.98 in
Visibility 0.1 miles
Clouds
Dew Point 57 °F
Humidity 98%
Rainfall 0.00 in
Snow Depth Not available.
UV Not available.
Pollen 2.20 out of 12
Air Quality Not available.
Flu Activity Sporadic
SPECI KDSM 241212Z 19010KT 1/8SM R31/1800V3000FT FG VV002 15/14 A2998 RMK AO2 SFC VIS 1/2 T01500139 $

More Conditions Fewer Conditions

10-Day Weather Forecast

Almanac

Astronomy

Oct. 24, 2014 Rise Set
Actual Time 7:36 AM CDT 6:20 PM CDT
Civil Twilight 7:08 AM CDT 6:48 PM CDT
Nautical Twilight 6:36 AM CDT 7:20 PM CDT
Astronomical Twilight 6:04 AM CDT 7:52 PM CDT
Moon 8:17 AM CDT 7:00 PM CDT
Length of Visible Light 11h 39m
Length of Day
10h 43m
Tomorrow will be 2m 34s shorter.
New Moon, 0% of the Moon is Illuminated
Today
New Moon
Oct 30
First Quarter
Nov 6
Full
Nov 14
Last Quarter
Nov 22
New

Today's Extremes

State Highs State Lows

Community

WunderPhotos

Upload Photos

1,764,544 photos uploaded!

Nearby

Snow Depth

Station Depth Elevation
No new snow has been reported.

Earthquake Activity

City Distance Mag. Time & Date
No recent earthquake activity has been reported nearby.
Minimum magnitude displayed is 2.5.

Coastal Water Temperatures

Place Temperature
No Stations Reporting

Nearby Weather Stations